Terminal Aerodrome Forecast
Issued by NWS

Home | Current Version | Previous Version | Text Only | Print | Product List | Glossary On
Versions: 1 2 3 4 5 6 7 8 9 10 11 12 13 14 15 16
000
FTAK31 PAJN 212340
TAFAKT
TAF
PAKT 212340Z 2200/2224 14013G23KT 6SM -SHRA SCT015 BKN025 OVC035
      WS020/15030KT
      TEMPO 2200/2204 3SM SHRA OVC020
     FM220600 13010KT P6SM -SHRA SCT025 OVC040
     FM221200 14008KT 6SM -SHRA BKN025 OVC040
      AMD LTD TO CLD VIS AND WIND 2206/2215=

USA.gov is the U.S. government's official web portal to all federal, state and local government web resources and services.